| time (UTC) | temp F | wind direction | speed knots | gust knots | rain 1hr in | rain 24hr in | rain mn in | humidity % | barometer mb |
| 20260510015418 | 60 | 18 | 3.5 | 6.1 | 0.00 | 0.00 | 0.00 | 65 | 1009.8 |
| 20260510014416 | 60 | 27 | 3.5 | 8.7 | 0.00 | 0.00 | 0.00 | 65 | 1009.9 |
| 20260510013415 | 60 | 19 | 5.2 | 8.7 | 0.00 | 0.00 | 0.00 | 65 | 1009.9 |
| 20260510012412 | 60 | 16 | 5.2 | 11.3 | 0.00 | 0.00 | 0.00 | 65 | 1009.9 |
| 20260510011410 | 60 | 18 | 5.2 | 9.6 | 0.00 | 0.00 | 0.00 | 65 | 1010.0 |
| 20260510010408 | 60 | 23 | 4.3 | 7.8 | 0.00 | 0.00 | 0.00 | 64 | 1010.2 |
| 20260510005406 | 61 | 18 | 4.3 | 7.8 | 0.00 | 0.00 | 0.00 | 64 | 1010.4 |
| 20260510004405 | 61 | 13 | 4.3 | 7.8 | 0.00 | 0.00 | 0.00 | 64 | 1010.6 |
| 20260510003402 | 61 | 16 | 5.2 | 8.7 | 0.00 | 0.00 | 0.00 | 63 | 1010.6 |
| 20260510002359 | 62 | 21 | 5.2 | 7.8 | 0.00 | 0.00 | 0.00 | 63 | 1010.7 |
| 20260510001358 | 62 | 15 | 4.3 | 7.0 | 0.00 | 0.00 | 0.00 | 63 | 1010.9 |
| 20260510000356 | 62 | 11 | 5.2 | 8.7 | 0.00 | 0.00 | 0.00 | 63 | 1010.9 |
| 20260509235352 | 62 | 16 | 5.2 | 9.6 | 0.00 | 0.00 | 0.00 | 63 | 1011.0 |
| 20260509234350 | 63 | 15 | 6.1 | 11.3 | 0.00 | 0.00 | 0.00 | 62 | 1011.0 |
| 20260509233347 | 63 | 15 | 5.2 | 9.6 | 0.00 | 0.00 | 0.00 | 62 | 1011.1 |
| 20260509232345 | 63 | 10 | 5.2 | 7.8 | 0.00 | 0.00 | 0.00 | 62 | 1011.1 |
| 20260509231343 | 63 | 15 | 5.2 | 10.4 | 0.00 | 0.00 | 0.00 | 62 | 1011.2 |
| 20260509230401 | 63 | 20 | 4.3 | 6.1 | 0.00 | 0.00 | 0.00 | 62 | 1011.3 |
| 20260509225339 | 64 | 17 | 3.5 | 7.0 | 0.00 | 0.00 | 0.00 | 62 | 1011.3 |
| 20260509224357 | 64 | 16 | 3.5 | 5.2 | 0.00 | 0.00 | 0.00 | 62 | 1011.4 |
| 20260509223356 | 64 | 15 | 4.3 | 7.0 | 0.00 | 0.00 | 0.00 | 62 | 1011.4 |
| 20260509222333 | 64 | 17 | 3.5 | 6.1 | 0.00 | 0.00 | 0.00 | 63 | 1011.4 |
| 20260509221331 | 64 | 12 | 4.3 | 7.8 | 0.00 | 0.00 | 0.00 | 63 | 1011.3 |
| 20260509220329 | 64 | 17 | 3.5 | 7.0 | 0.00 | 0.00 | 0.00 | 63 | 1011.3 |
| 20260509215327 | 64 | 21 | 4.3 | 7.8 | 0.00 | 0.00 | 0.00 | 63 | 1011.4 |
| 20260509214325 | 64 | 24 | 3.5 | 6.1 | 0.00 | 0.00 | 0.00 | 64 | 1011.4 |
| 20260509213322 | 64 | 20 | 3.5 | 6.1 | 0.00 | 0.00 | 0.00 | 64 | 1011.5 |
| 20260509212320 | 64 | 24 | 3.5 | 7.0 | 0.00 | 0.00 | 0.00 | 64 | 1011.5 |
| 20260509211318 | 64 | 11 | 2.6 | 6.1 | 0.00 | 0.00 | 0.00 | 64 | 1011.5 |
| 20260509210316 | 64 | 25 | 3.5 | 5.2 | 0.00 | 0.00 | 0.00 | 65 | 1011.4 |
| 20260509205313 | 64 | 17 | 0.9 | 3.5 | 0.00 | 0.00 | 0.00 | 64 | 1011.4 |
| 20260509204313 | 64 | 15 | 0.9 | 2.6 | 0.00 | 0.00 | 0.00 | 64 | 1011.3 |
| 20260509203330 | 65 | 20 | 0.9 | 2.6 | 0.00 | 0.00 | 0.00 | 63 | 1011.3 |
| 20260509202308 | 65 | 29 | 0.9 | 1.7 | 0.00 | 0.00 | 0.00 | 63 | 1011.4 |
| 20260509201306 | 65 | 22 | 1.7 | 2.6 | 0.00 | 0.00 | 0.00 | 62 | 1011.3 |
| 20260509200304 | 66 | 25 | 1.7 | 3.5 | 0.00 | 0.00 | 0.00 | 62 | 1011.3 |
| 20260509195306 | 66 | 22 | 0.9 | 2.6 | 0.00 | 0.00 | 0.00 | 61 | 1011.2 |
| 20260509194259 | 67 | 29 | 0.9 | 3.5 | 0.00 | 0.00 | 0.00 | 60 | 1011.1 |
| 20260509193317 | 67 | 21 | 0.9 | 2.6 | 0.00 | 0.00 | 0.00 | 59 | 1011.0 |
| 20260509192315 | 68 | 22 | 0.9 | 2.6 | 0.00 | 0.00 | 0.00 | 59 | 1010.9 |
| 20260509191252 | 69 | 18 | 0.9 | 2.6 | 0.00 | 0.00 | 0.00 | 58 | 1010.9 |
| 20260509190310 | 69 | 25 | 0.9 | 3.5 | 0.00 | 0.00 | 0.00 | 57 | 1011.0 |
| 20260509185248 | 69 | 23 | 1.7 | 3.5 | 0.00 | 0.00 | 0.00 | 56 | 1010.9 |
| 20260509184247 | 70 | 17 | 1.7 | 4.3 | 0.00 | 0.00 | 0.00 | 55 | 1010.8 |
| 20260509183304 | 71 | 7 | 1.7 | 6.1 | 0.00 | 0.00 | 0.00 | 54 | 1010.8 |
| 20260509182242 | 71 | 14 | 2.6 | 5.2 | 0.00 | 0.00 | 0.00 | 54 | 1010.7 |
| 20260509181240 | 72 | 14 | 1.7 | 5.2 | 0.00 | 0.00 | 0.00 | 53 | 1010.6 |
| 20260509180238 | 72 | 24 | 1.7 | 3.5 | 0.00 | 0.00 | 0.00 | 53 | 1010.7 |
| 20260509175236 | 73 | 31 | 1.7 | 5.2 | 0.00 | 0.00 | 0.00 | 52 | 1010.7 |
| 20260509174254 | 73 | 17 | 2.6 | 5.2 | 0.00 | 0.00 | 0.00 | 51 | 1010.6 |
| 20260509173231 | 74 | 25 | 1.7 | 4.3 | 0.00 | 0.00 | 0.00 | 51 | 1010.9 |
| 20260509172250 | 74 | 11 | 2.6 | 7.8 | 0.00 | 0.00 | 0.00 | 50 | 1010.9 |
| 20260509171249 | 75 | 15 | 2.6 | 7.8 | 0.00 | 0.00 | 0.00 | 51 | 1010.9 |
| 20260509170226 | 75 | 105 | 1.7 | 5.2 | 0.00 | 0.00 | 0.00 | 51 | 1011.0 |
| 20260509165224 | 74 | 146 | 1.7 | 3.5 | 0.00 | 0.00 | 0.00 | 51 | 1011.0 |
| 20260509164222 | 74 | 71 | 1.7 | 3.5 | 0.00 | 0.00 | 0.00 | 51 | 1011.0 |
| 20260509163220 | 74 | 90 | 1.7 | 3.5 | 0.00 | 0.00 | 0.00 | 51 | 1011.0 |
| 20260509162218 | 75 | 31 | 1.7 | 5.2 | 0.00 | 0.00 | 0.00 | 51 | 1011.1 |
| 20260509161216 | 75 | 90 | 1.7 | 5.2 | 0.00 | 0.00 | 0.00 | 52 | 1011.1 |
| 20260509160234 | 74 | 45 | 1.7 | 5.2 | 0.00 | 0.00 | 0.00 | 52 | 1011.2 |
| 20260509155232 | 74 | 41 | 1.7 | 5.2 | 0.00 | 0.00 | 0.00 | 52 | 1011.3 |
| 20260509154209 | 75 | 6 | 3.5 | 8.7 | 0.00 | 0.00 | 0.00 | 52 | 1011.4 |
| 20260509153208 | 75 | 28 | 1.7 | 5.2 | 0.00 | 0.00 | 0.00 | 52 | 1011.5 |
| 20260509152206 | 75 | 21 | 1.7 | 5.2 | 0.00 | 0.00 | 0.00 | 52 | 1011.7 |
| 20260509151204 | 75 | 1 | 1.7 | 6.1 | 0.00 | 0.00 | 0.00 | 51 | 1011.8 |
| 20260509150201 | 76 | 42 | 1.7 | 6.1 | 0.00 | 0.00 | 0.00 | 53 | 1011.8 |
| 20260509145200 | 75 | 34 | 0.9 | 3.5 | 0.00 | 0.00 | 0.00 | 53 | 1011.9 |
| 20260509144158 | 76 | 19 | 1.7 | 5.2 | 0.00 | 0.00 | 0.00 | 51 | 1011.8 |
| 20260509143156 | 77 | 7 | 2.6 | 6.1 | 0.00 | 0.00 | 0.00 | 51 | 1011.9 |
| 20260509142154 | 78 | 145 | 1.7 | 4.3 | 0.00 | 0.00 | 0.00 | 50 | 1011.7 |
| 20260509141152 | 78 | 170 | 2.6 | 7.8 | 0.00 | 0.00 | 0.00 | 50 | 1011.7 |
| 20260509140149 | 78 | 204 | 1.7 | 6.1 | 0.00 | 0.00 | 0.00 | 52 | 1011.6 |
| 20260509135208 | 77 | 198 | 1.7 | 5.2 | 0.00 | 0.00 | 0.00 | 53 | 1011.7 |
| 20260509134146 | 76 | 45 | 1.7 | 5.2 | 0.00 | 0.00 | 0.00 | 54 | 1011.7 |
| 20260509133145 | 75 | 196 | 1.7 | 7.8 | 0.00 | 0.00 | 0.00 | 55 | 1011.9 |
| 20260509132142 | 75 | 66 | 1.7 | 6.1 | 0.00 | 0.00 | 0.00 | 54 | 1011.9 |
| 20260509131240 | 75 | 288 | 1.7 | 6.1 | 0.00 | 0.00 | 0.00 | 56 | 1011.9 |
| 20260509130139 | 75 | 18 | 1.7 | 5.2 | 0.00 | 0.00 | 0.00 | 54 | 1012.0 |
| 20260509125136 | 75 | 27 | 2.6 | 9.6 | 0.00 | 0.00 | 0.00 | 57 | 1012.1 |
| 20260509124139 | 74 | 17 | 1.7 | 7.8 | 0.00 | 0.00 | 0.00 | 56 | 1012.2 |
| 20260509123152 | 74 | 15 | 2.6 | 9.6 | 0.00 | 0.00 | 0.00 | 56 | 1012.3 |
| 20260509122130 | 74 | 16 | 2.6 | 6.1 | 0.00 | 0.00 | 0.00 | 57 | 1012.5 |
| 20260509121128 | 74 | 168 | 0.9 | 1.7 | 0.00 | 0.00 | 0.00 | 58 | 1012.5 |
| 20260509120125 | 73 | 30 | 1.7 | 6.1 | 0.00 | 0.00 | 0.00 | 60 | 1012.6 |
| 20260509115123 | 72 | 35 | 1.7 | 5.2 | 0.00 | 0.00 | 0.00 | 61 | 1012.7 |
| 20260509114141 | 71 | 26 | 3.5 | 7.8 | 0.00 | 0.00 | 0.00 | 59 | 1012.8 |
| 20260509113117 | 72 | 35 | 1.7 | 5.2 | 0.00 | 0.00 | 0.00 | 61 | 1012.9 |
| 20260509112115 | 71 | 13 | 3.5 | 8.7 | 0.00 | 0.00 | 0.00 | 61 | 1013.1 |
| 20260509111114 | 71 | 39 | 1.7 | 3.5 | 0.00 | 0.00 | 0.00 | 64 | 1013.2 |
| 20260509110211 | 70 | 32 | 1.7 | 5.2 | 0.00 | 0.00 | 0.00 | 65 | 1013.2 |
| 20260509105129 | 69 | 90 | 1.7 | 7.0 | 0.00 | 0.00 | 0.00 | 66 | 1013.3 |
| 20260509104108 | 68 | 51 | 0.9 | 3.5 | 0.00 | 0.00 | 0.00 | 68 | 1013.4 |
| 20260509103105 | 67 | 27 | 1.7 | 7.0 | 0.00 | 0.00 | 0.00 | 69 | 1013.4 |
| 20260509102103 | 66 | 29 | 1.7 | 6.1 | 0.00 | 0.00 | 0.00 | 70 | 1013.6 |
| 20260509101121 | 65 | 34 | 1.7 | 3.5 | 0.00 | 0.00 | 0.00 | 72 | 1013.6 |
| 20260509100119 | 65 | 45 | 1.7 | 4.3 | 0.00 | 0.00 | 0.00 | 72 | 1013.5 |
| 20260509095058 | 64 | 34 | 1.7 | 5.2 | 0.00 | 0.00 | 0.00 | 71 | 1013.6 |
| 20260509094055 | 63 | 31 | 1.7 | 6.1 | 0.00 | 0.00 | 0.00 | 72 | 1013.6 |
| 20260509093053 | 63 | 27 | 1.7 | 5.2 | 0.00 | 0.00 | 0.00 | 71 | 1013.6 |
| 20260509092051 | 63 | 28 | 1.7 | 5.2 | 0.00 | 0.00 | 0.00 | 73 | 1013.6 |
| 20260509091049 | 62 | 47 | 1.7 | 5.2 | 0.00 | 0.00 | 0.00 | 74 | 1013.6 |
| 20260509090048 | 62 | 45 | 1.7 | 3.5 | 0.00 | 0.00 | 0.00 | 74 | 1013.5 |
| 20260509085045 | 61 | 28 | 1.7 | 4.3 | 0.00 | 0.00 | 0.00 | 75 | 1013.4 |
| 20260509084043 | 60 | 29 | 1.7 | 3.5 | 0.00 | 0.00 | 0.00 | 76 | 1013.5 |
| 20260509083040 | 60 | 29 | 1.7 | 5.2 | 0.00 | 0.00 | 0.00 | 76 | 1013.6 |
| 20260509082039 | 59 | 33 | 1.7 | 3.5 | 0.00 | 0.00 | 0.00 | 76 | 1013.8 |
| 20260509081036 | 59 | 23 | 1.7 | 5.2 | 0.00 | 0.00 | 0.00 | 77 | 1013.9 |
| 20260509080034 | 58 | 23 | 1.7 | 5.2 | 0.00 | 0.00 | 0.00 | 77 | 1013.9 |
| 20260509075033 | 57 | 18 | 1.7 | 5.2 | 0.00 | 0.00 | 0.00 | 78 | 1013.9 |
| 20260509074030 | 57 | 26 | 1.7 | 5.2 | 0.00 | 0.00 | 0.00 | 78 | 1014.1 |
| 20260509073027 | 56 | 25 | 1.7 | 5.2 | 0.00 | 0.00 | 0.00 | 79 | 1014.1 |
| 20260509072045 | 56 | 33 | 1.7 | 5.2 | 0.00 | 0.00 | 0.00 | 79 | 1014.1 |
| 20260509071043 | 56 | 42 | 2.6 | 6.1 | 0.00 | 0.00 | 0.00 | 80 | 1014.1 |
| 20260509070020 | 55 | 24 | 2.6 | 5.2 | 0.00 | 0.00 | 0.00 | 80 | 1014.1 |
| 20260509065039 | 54 | 23 | 1.7 | 5.2 | 0.00 | 0.00 | 0.00 | 81 | 1014.1 |
| 20260509064057 | 54 | 18 | 2.6 | 5.2 | 0.00 | 0.00 | 0.00 | 81 | 1014.1 |
| 20260509063015 | 53 | 24 | 3.5 | 7.0 | 0.00 | 0.00 | 0.00 | 82 | 1014.1 |
| 20260509062035 | 53 | 23 | 3.5 | 5.2 | 0.00 | 0.00 | 0.00 | 82 | 1014.0 |
| 20260509061011 | 52 | 24 | 2.6 | 5.2 | 0.00 | 0.00 | 0.00 | 82 | 1013.9 |
| 20260509060009 | 51 | 16 | 3.5 | 5.2 | 0.00 | 0.00 | 0.00 | 82 | 1014.0 |
| 20260509055007 | 51 | 8 | 1.7 | 3.5 | 0.00 | 0.00 | 0.00 | 82 | 1013.8 |
| 20260509054026 | 51 | 22 | 3.5 | 5.2 | 0.00 | 0.00 | 0.00 | 82 | 1013.8 |
| 20260509053003 | 51 | 22 | 3.5 | 6.1 | 0.00 | 0.00 | 0.00 | 81 | 1013.7 |
| 20260509051500 | 51 | 16 | 3.5 | 5.2 | 0.00 | 0.00 | 0.00 | 81 | 1013.7 |
| 20260509050458 | 51 | 17 | 3.5 | 6.1 | 0.00 | 0.00 | 0.00 | 81 | 1013.6 |
| 20260509045456 | 51 | 20 | 3.5 | 7.0 | 0.00 | 0.00 | 0.00 | 81 | 1013.5 |
| 20260509044454 | 51 | 1 | 3.5 | 5.2 | 0.00 | 0.00 | 0.00 | 80 | 1013.5 |
| 20260509043453 | 51 | 1 | 3.5 | 5.2 | 0.00 | 0.00 | 0.00 | 80 | 1013.5 |
| 20260509042451 | 51 | 8 | 3.5 | 7.8 | 0.00 | 0.00 | 0.00 | 80 | 1013.6 |
| 20260509041508 | 51 | 12 | 3.5 | 5.2 | 0.00 | 0.00 | 0.00 | 80 | 1013.7 |
| 20260509040446 | 52 | 13 | 4.3 | 7.8 | 0.00 | 0.00 | 0.00 | 80 | 1013.6 |
| 20260509035504 | 52 | 16 | 3.5 | 9.6 | 0.00 | 0.00 | 0.00 | 80 | 1013.7 |
| 20260509034441 | 52 | 17 | 3.5 | 7.0 | 0.00 | 0.00 | 0.00 | 79 | 1013.7 |
| 20260509033438 | 52 | 12 | 3.5 | 6.1 | 0.00 | 0.00 | 0.00 | 79 | 1013.7 |
| 20260509032436 | 52 | 14 | 3.5 | 6.1 | 0.00 | 0.00 | 0.00 | 79 | 1013.8 |
| 20260509031434 | 52 | 9 | 3.5 | 6.1 | 0.00 | 0.00 | 0.00 | 79 | 1013.9 |
| 20260509030432 | 52 | 19 | 3.5 | 6.1 | 0.00 | 0.00 | 0.00 | 79 | 1013.9 |
| 20260509025430 | 52 | 358 | 3.5 | 6.1 | 0.00 | 0.00 | 0.00 | 78 | 1013.9 |
| 20260509024428 | 52 | 7 | 3.5 | 6.1 | 0.00 | 0.00 | 0.00 | 79 | 1014.0 |
| 20260509023426 | 52 | 13 | 2.6 | 6.1 | 0.00 | 0.00 | 0.00 | 78 | 1014.0 |
| 20260509022424 | 52 | 18 | 1.7 | 3.5 | 0.00 | 0.00 | 0.00 | 78 | 1014.0 |
| 20260509021422 | 52 | 16 | 2.6 | 4.3 | 0.00 | 0.00 | 0.00 | 78 | 1014.1 |
| 20260509020420 | 52 | 21 | 2.6 | 5.2 | 0.00 | 0.00 | 0.00 | 78 | 1014.1 |